Pendleton, TX (76564)

8:01 PM CDT on August 03, 2015 (GMT -0500)
Woodbridge Creek | | Change Station
CLOSE
Current Station
Personal Weather Station
Location: Temple, TX
Elevation: 682 ft
Nearby Weather Stations

Elev 682 ft 31.11 °N, 97.38 °W | Updated 16 seconds ago

Clear
Clear
92.5 °F
Feels Like 93 °F
N
0.0
Wind Variable Wind from WSW
Gusts 0.0 mph

Today
High -- | Low -- °F
--% Chance of Precip.
Yesterday
High -- | Low -- °F
Precip. -- in
6:47 AM 8:22 PM
Waning Gibbous, 82% visible
Pressure 29.87 in
Visibility 10.0 miles
Clouds Clear
Heat Index 93 °F
Dew Point 62 °F
Humidity 37%
Rainfall 0.00 in
Snow Depth Not available.
UV 0.0 out of 12
Pollen 6.30 out of 12
Air Quality Not available.
Flu Activity Not available.
METAR KTPL 040055Z AUTO 13008KT 10SM CLR 33/15 A2987 RMK AO1

More Conditions Fewer Conditions

Pressure 29.87 in
Visibility 10.0 miles
Clouds Clear
Heat Index 93 °F
Dew Point 62 °F
Humidity 37%
Rainfall 0.00 in
Snow Depth Not available.
UV 0.0 out of 12
Pollen 6.30 out of 12
Air Quality Not available.
Flu Activity Not available.
METAR KTPL 040055Z AUTO 13008KT 10SM CLR 33/15 A2987 RMK AO1

More Conditions Fewer Conditions

Nowcast | as of 6:14 PM CDT on August 3, 2015

A few sprinkles will be possible mainly along the Red River late this afternoon and into the early evening hours. With dry air entrenched at the surface...rainfall amounts are expected to remain very light. Otherwise...hot conditions are expected to continue through the late afternoon and early evening hours with temperatures in the mid 90s. Skies will range from mostly cloudy along the Red River to mostly sunny elsewhere.

×

10-Day Weather Forecast

×

Almanac

Astronomy

Aug. 03, 2015 Rise Set
Actual Time
Civil Twilight
Nautical Twilight
Astronomical Twilight
Moon
Length of Visible Light
Length of Day
Tomorrow will be .
, % of the Moon is Illuminated

Today's Extremes

State Highs State Lows

Community

WunderPhotos

Upload Photos

1,843,805 photos uploaded!

WunderBlogs® & News

Nearby

Air Quality

  Air Quality AQ Index Pollutant
Not available.

Snow Depth

Station Depth Elevation

Earthquake Activity

City Distance Mag. Time & Date
Minimum magnitude displayed is 2.5.

Coastal Water Temperatures

Place Temperature

Stations

Nearby Weather Stations

Station Location Temp. Windchill Dew Point Humidity Wind Precip. Elev Updated Type